createdAt,value
2024-04-14T00:00:12.654Z,45.06
2024-04-14T00:02:39.659Z,45.40
2024-04-14T00:05:06.741Z,45.32
2024-04-14T00:07:33.622Z,45.59
2024-04-14T00:10:00.439Z,45.48
2024-04-14T00:12:27.261Z,45.83
2024-04-14T00:14:54.087Z,45.81
2024-04-14T00:17:20.837Z,45.86
2024-04-14T00:19:52.939Z,45.91
2024-04-14T00:22:20.282Z,45.83
2024-04-14T00:24:48.325Z,45.59
2024-04-14T00:27:15.106Z,45.60
2024-04-14T00:29:41.915Z,45.49
2024-04-14T00:32:08.693Z,45.70
2024-04-14T00:34:35.516Z,46.00
2024-04-14T00:37:02.358Z,45.63
2024-04-14T00:39:29.143Z,46.31
2024-04-14T00:41:56.329Z,45.97
2024-04-14T00:44:23.097Z,46.50
2024-04-14T00:46:49.941Z,46.34
2024-04-14T00:49:16.807Z,46.01
2024-04-14T00:51:43.587Z,46.59
2024-04-14T00:54:12.642Z,46.24
2024-04-14T00:56:39.802Z,46.58
2024-04-14T00:59:06.970Z,46.07
2024-04-14T01:01:33.710Z,46.35
2024-04-14T01:04:00.648Z,46.98
2024-04-14T01:06:27.525Z,46.69
2024-04-14T01:08:54.774Z,46.69
2024-04-14T01:11:22.050Z,46.35
2024-04-14T01:13:48.991Z,46.79
2024-04-14T01:16:15.742Z,46.62
2024-04-14T01:18:42.490Z,46.92
2024-04-14T01:21:09.341Z,46.50
2024-04-14T01:23:36.345Z,46.50
2024-04-14T01:26:03.291Z,46.58
2024-04-14T01:28:30.050Z,46.98
2024-04-14T01:30:57.030Z,47.14
2024-04-14T01:33:23.798Z,46.80
2024-04-14T01:35:50.538Z,46.75
2024-04-14T01:38:24.586Z,46.98
2024-04-14T01:40:53.133Z,47.11
2024-04-14T01:43:19.861Z,47.35
2024-04-14T01:45:47.034Z,47.10
2024-04-14T01:48:14.089Z,47.19
2024-04-14T01:50:41.353Z,47.17
2024-04-14T01:53:08.328Z,47.74
2024-04-14T01:55:35.126Z,47.24
2024-04-14T01:58:02.019Z,47.64
2024-04-14T02:00:29.163Z,47.65
2024-04-14T02:02:57.326Z,47.52
2024-04-14T02:05:24.335Z,47.68
2024-04-14T02:07:51.086Z,47.64
2024-04-14T02:10:17.873Z,47.84
2024-04-14T02:12:44.718Z,47.71
2024-04-14T02:15:11.511Z,47.87
2024-04-14T02:17:38.441Z,48.08
2024-04-14T02:20:05.885Z,48.38
2024-04-14T02:22:32.687Z,47.88
2024-04-14T02:24:59.566Z,47.65
2024-04-14T02:27:26.459Z,48.66
2024-04-14T02:29:53.309Z,48.83
2024-04-14T02:32:20.296Z,48.65
2024-04-14T02:34:47.353Z,48.44
2024-04-14T02:37:14.091Z,48.97
2024-04-14T02:39:40.861Z,48.69
2024-04-14T02:42:07.649Z,48.93
2024-04-14T02:44:34.397Z,48.56
2024-04-14T02:47:01.134Z,49.50
2024-04-14T02:49:29.935Z,49.03
2024-04-14T02:51:57.714Z,48.58
2024-04-14T02:54:25.064Z,48.81
2024-04-14T02:56:51.964Z,48.60
2024-04-14T02:59:19.014Z,49.00
2024-04-14T03:01:47.167Z,49.25
2024-04-14T03:04:14.160Z,49.38
2024-04-14T03:06:41.109Z,49.20
2024-04-14T03:09:07.864Z,49.61
2024-04-14T03:11:34.670Z,49.80
2024-04-14T03:14:01.488Z,49.80
2024-04-14T03:16:28.271Z,49.27
2024-04-14T03:18:55.147Z,49.52
2024-04-14T03:21:24.336Z,50.16
2024-04-14T03:23:51.651Z,49.76
2024-04-14T03:26:18.523Z,50.23
2024-04-14T03:28:45.287Z,50.49
2024-04-14T03:31:12.415Z,49.80
2024-04-14T03:33:39.393Z,49.67
2024-04-14T03:36:08.323Z,49.79
2024-04-14T03:38:35.983Z,48.94
2024-04-14T03:41:03.165Z,49.50
2024-04-14T03:43:30.517Z,49.38
2024-04-14T03:45:57.560Z,49.72
2024-04-14T03:48:24.578Z,49.38
2024-04-14T03:50:51.548Z,49.47
2024-04-14T03:53:18.481Z,49.31
2024-04-14T03:55:45.546Z,49.52
2024-04-14T03:58:12.313Z,49.44
2024-04-14T04:00:39.340Z,50.17
2024-04-14T04:03:06.231Z,50.09
2024-04-14T04:05:32.986Z,50.08
2024-04-14T04:07:59.749Z,50.08
2024-04-14T04:10:26.503Z,49.52
2024-04-14T04:12:53.399Z,49.82
2024-04-14T04:15:20.227Z,49.83
2024-04-14T04:17:47.188Z,50.09
2024-04-14T04:20:14.180Z,49.99
2024-04-14T04:22:40.905Z,50.58
2024-04-14T04:25:07.691Z,50.45
2024-04-14T04:27:34.595Z,49.89
2024-04-14T04:30:01.448Z,50.18
2024-04-14T04:32:28.238Z,50.13
2024-04-14T04:34:55.017Z,49.81
2024-04-14T04:37:21.763Z,49.64
2024-04-14T04:39:48.627Z,50.49
2024-04-14T04:42:15.375Z,49.92
2024-04-14T04:44:42.223Z,49.80
2024-04-14T04:47:08.965Z,49.28
2024-04-14T04:49:35.736Z,49.12
2024-04-14T04:52:02.565Z,49.08
2024-04-14T04:54:29.410Z,48.47
2024-04-14T04:56:56.145Z,48.54
2024-04-14T04:59:23.504Z,48.17
2024-04-14T05:01:50.243Z,48.25
2024-04-14T05:04:17.006Z,48.35
2024-04-14T05:06:43.788Z,48.42
2024-04-14T05:09:10.558Z,48.51
2024-04-14T05:11:37.283Z,48.81
2024-04-14T05:14:04.025Z,48.64
2024-04-14T05:16:30.764Z,49.01
2024-04-14T05:18:57.540Z,49.24
2024-04-14T05:21:24.318Z,49.89
2024-04-14T05:23:51.124Z,49.65
2024-04-14T05:26:17.964Z,49.64
2024-04-14T05:28:44.700Z,50.35
2024-04-14T05:31:11.549Z,49.92
2024-04-14T05:33:38.333Z,50.39
2024-04-14T05:36:05.443Z,49.94
2024-04-14T05:38:36.510Z,50.20
2024-04-14T05:41:03.455Z,50.24
2024-04-14T05:43:30.191Z,49.90
2024-04-14T05:45:57.081Z,49.90
2024-04-14T05:48:23.889Z,50.59
2024-04-14T05:50:50.700Z,50.78
2024-04-14T05:53:17.437Z,50.43
2024-04-14T05:55:44.208Z,50.70
2024-04-14T05:58:10.948Z,50.46
2024-04-14T06:00:38.364Z,50.96
2024-04-14T06:03:05.868Z,50.93
2024-04-14T06:05:32.887Z,50.66
2024-04-14T06:07:59.832Z,50.61
2024-04-14T06:10:27.446Z,51.42
2024-04-14T06:12:54.195Z,51.55
2024-04-14T06:15:20.923Z,50.92
2024-04-14T06:17:47.712Z,50.92
2024-04-14T06:20:14.539Z,51.45
2024-04-14T06:22:41.323Z,50.97
2024-04-14T06:25:08.112Z,51.55
2024-04-14T06:27:34.921Z,51.31
2024-04-14T06:30:01.763Z,51.29
2024-04-14T06:32:28.664Z,51.43
2024-04-14T06:34:55.413Z,51.16
2024-04-14T06:37:22.233Z,51.37
2024-04-14T06:39:49.004Z,51.40
2024-04-14T06:42:17.137Z,51.24
2024-04-14T06:44:44.281Z,51.25
2024-04-14T06:47:12.092Z,50.92
2024-04-14T06:49:38.954Z,50.72
2024-04-14T06:52:06.260Z,50.81
2024-04-14T06:54:33.085Z,51.14
2024-04-14T06:56:59.859Z,50.99
2024-04-14T06:59:26.570Z,50.56
2024-04-14T07:01:53.483Z,50.71
2024-04-14T07:04:20.357Z,50.03
2024-04-14T07:06:47.305Z,50.63
2024-04-14T07:09:14.178Z,49.56
2024-04-14T07:11:40.927Z,49.06
2024-04-14T07:14:07.748Z,48.67
2024-04-14T07:16:34.521Z,47.62
2024-04-14T07:19:01.340Z,47.05
2024-04-14T07:21:28.149Z,46.43
2024-04-14T07:23:54.888Z,46.07
2024-04-14T07:26:21.695Z,45.06
2024-04-14T07:28:48.394Z,44.72
2024-04-14T07:31:15.126Z,44.65
2024-04-14T07:33:41.885Z,44.54
2024-04-14T07:36:08.685Z,43.89
2024-04-14T07:38:35.416Z,44.08
2024-04-14T07:41:02.177Z,42.79
2024-04-14T07:43:28.922Z,43.49
2024-04-14T07:45:57.227Z,43.81
2024-04-14T07:48:24.141Z,43.66
2024-04-14T07:50:50.968Z,41.78
2024-04-14T07:53:17.704Z,42.62
2024-04-14T07:55:44.509Z,42.50
2024-04-14T07:58:11.289Z,42.25
2024-04-14T08:00:38.114Z,41.64
2024-04-14T08:03:05.176Z,39.85
2024-04-14T08:05:32.022Z,39.07
2024-04-14T08:07:59.009Z,38.42
2024-04-14T08:10:25.788Z,38.60
2024-04-14T08:12:52.534Z,38.12
2024-04-14T08:15:19.261Z,38.11
2024-04-14T08:17:46.106Z,38.17
2024-04-14T08:20:12.865Z,38.85
2024-04-14T08:22:39.687Z,37.65
2024-04-14T08:25:06.780Z,37.69
2024-04-14T08:27:33.804Z,36.18
2024-04-14T08:30:00.652Z,36.79
2024-04-14T08:32:27.462Z,38.05
2024-04-14T08:34:54.290Z,37.17
2024-04-14T08:37:21.731Z,37.53
2024-04-14T08:39:48.577Z,38.02
2024-04-14T08:42:15.637Z,37.49
2024-04-14T08:44:44.160Z,37.34
2024-04-14T08:47:11.870Z,38.03
2024-04-14T08:49:41.444Z,37.83
2024-04-14T08:52:12.025Z,37.38
2024-04-14T08:54:39.643Z,36.86
2024-04-14T08:57:07.549Z,37.10
2024-04-14T08:59:34.808Z,37.33
2024-04-14T09:02:04.820Z,37.11
2024-04-14T09:04:31.668Z,37.81
2024-04-14T09:06:58.529Z,37.05
2024-04-14T09:09:25.356Z,36.40
2024-04-14T09:11:57.757Z,36.20
2024-04-14T09:14:24.592Z,36.41
2024-04-14T09:16:52.431Z,36.06
2024-04-14T09:19:19.758Z,35.41
2024-04-14T09:21:46.960Z,36.45
2024-04-14T09:24:13.808Z,35.19
2024-04-14T09:26:40.597Z,35.48
2024-04-14T09:29:08.929Z,35.53
2024-04-14T09:31:36.802Z,35.62
2024-04-14T09:34:06.977Z,35.41
2024-04-14T09:36:34.227Z,35.40
2024-04-14T09:39:04.432Z,35.04
2024-04-14T09:41:32.451Z,34.45
2024-04-14T09:44:00.836Z,35.14
2024-04-14T09:46:29.005Z,34.21
2024-04-14T09:48:57.777Z,33.40
2024-04-14T09:51:27.834Z,33.82
2024-04-14T09:53:55.563Z,34.98
2024-04-14T09:56:23.131Z,36.13
2024-04-14T09:58:50.180Z,34.27
2024-04-14T10:01:25.206Z,34.18
2024-04-14T10:03:57.581Z,34.57
2024-04-14T10:06:28.323Z,35.33
2024-04-14T10:08:55.398Z,34.91
2024-04-14T10:11:24.577Z,33.92
2024-04-14T10:13:59.255Z,33.61
2024-04-14T10:16:27.419Z,33.94
2024-04-14T10:18:54.373Z,33.57
2024-04-14T10:21:23.707Z,34.39
2024-04-14T10:23:58.904Z,32.57
2024-04-14T10:26:26.099Z,32.79
2024-04-14T10:28:54.757Z,31.32
2024-04-14T10:31:38.146Z,33.07
2024-04-14T10:34:08.042Z,32.17
2024-04-14T10:36:37.229Z,31.96
2024-04-14T10:39:06.335Z,32.08
2024-04-14T10:41:36.192Z,32.14
2024-04-14T10:44:03.028Z,32.55
2024-04-14T10:46:29.835Z,31.99
2024-04-14T10:48:57.038Z,31.75
2024-04-14T10:51:24.114Z,31.08
2024-04-14T10:53:54.770Z,31.05
2024-04-14T10:56:22.204Z,30.88
2024-04-14T10:58:49.022Z,31.06
2024-04-14T11:01:16.594Z,31.07
2024-04-14T11:03:43.960Z,31.37
2024-04-14T11:06:11.382Z,30.70
2024-04-14T11:08:40.071Z,30.19
2024-04-14T11:11:09.088Z,30.27
2024-04-14T11:13:36.834Z,30.58
2024-04-14T11:16:06.708Z,31.27
2024-04-14T11:18:36.259Z,31.47
2024-04-14T11:21:03.034Z,31.63
2024-04-14T11:23:29.827Z,31.00
2024-04-14T11:25:56.950Z,30.79
2024-04-14T11:28:23.987Z,31.52
2024-04-14T11:30:51.148Z,29.89
2024-04-14T11:33:22.385Z,30.25
2024-04-14T11:35:55.799Z,31.26
2024-04-14T11:38:22.577Z,30.57
2024-04-14T11:40:49.322Z,31.56
2024-04-14T11:43:16.142Z,30.97
2024-04-14T11:45:52.576Z,30.62
2024-04-14T11:48:21.601Z,30.82
2024-04-14T11:50:48.555Z,30.02
2024-04-14T11:53:15.364Z,28.62
2024-04-14T11:55:42.109Z,29.95
2024-04-14T11:58:09.969Z,29.37
2024-04-14T12:00:36.933Z,30.24
2024-04-14T12:03:04.464Z,29.69
2024-04-14T12:05:31.372Z,30.49
2024-04-14T12:07:58.090Z,29.54
2024-04-14T12:10:24.867Z,28.81
2024-04-14T12:12:51.915Z,28.93
2024-04-14T12:15:18.751Z,27.59
2024-04-14T12:17:45.525Z,28.58
2024-04-14T12:20:12.335Z,28.82
2024-04-14T12:22:39.179Z,30.53
2024-04-14T12:25:07.482Z,29.50
2024-04-14T12:27:34.323Z,29.15
2024-04-14T12:30:01.883Z,29.66
2024-04-14T12:32:28.832Z,30.03
2024-04-14T12:34:55.713Z,29.10
2024-04-14T12:37:22.458Z,30.31
2024-04-14T12:39:49.316Z,30.56
2024-04-14T12:42:16.068Z,30.24
2024-04-14T12:44:42.778Z,29.40
2024-04-14T12:47:09.599Z,29.64
2024-04-14T12:49:36.331Z,30.43
2024-04-14T12:52:03.216Z,31.18
2024-04-14T12:54:30.191Z,30.95
2024-04-14T12:56:57.068Z,30.74
2024-04-14T12:59:23.836Z,30.86
2024-04-14T13:01:51.212Z,31.45
2024-04-14T13:04:18.146Z,30.67
2024-04-14T13:06:45.071Z,30.86
2024-04-14T13:09:11.817Z,30.81
2024-04-14T13:11:38.598Z,31.65
2024-04-14T13:14:05.704Z,32.48
2024-04-14T13:16:32.538Z,31.89
2024-04-14T13:19:00.384Z,31.53
2024-04-14T13:21:29.833Z,32.80
2024-04-14T13:23:56.586Z,31.83
2024-04-14T13:26:26.496Z,32.55
2024-04-14T13:28:53.233Z,31.01
2024-04-14T13:31:19.976Z,30.52
2024-04-14T13:33:47.487Z,30.90
2024-04-14T13:36:14.290Z,31.18
2024-04-14T13:38:40.998Z,30.99
2024-04-14T13:41:08.779Z,30.63
2024-04-14T13:43:35.559Z,31.05
2024-04-14T13:46:02.463Z,30.17
2024-04-14T13:48:29.268Z,31.22
2024-04-14T13:50:56.014Z,31.36
2024-04-14T13:53:22.756Z,31.54
2024-04-14T13:55:49.475Z,32.42
2024-04-14T13:58:21.198Z,30.75
2024-04-14T14:00:48.710Z,30.78
2024-04-14T14:03:16.003Z,31.45
2024-04-14T14:08:09.609Z,31.27
2024-04-14T14:10:36.400Z,30.63
2024-04-14T14:13:03.210Z,30.37
2024-04-14T14:15:30.010Z,30.83
2024-04-14T14:17:57.042Z,30.56
2024-04-14T14:20:23.796Z,31.74
2024-04-14T14:22:50.544Z,31.17
2024-04-14T14:25:17.407Z,31.74
2024-04-14T14:27:44.423Z,30.42
2024-04-14T14:30:11.243Z,31.41
2024-04-14T14:32:40.909Z,30.33
2024-04-14T14:35:26.294Z,30.32
2024-04-14T14:37:53.105Z,31.05
2024-04-14T14:40:19.887Z,31.33
2024-04-14T14:42:48.073Z,31.68
2024-04-14T14:45:14.826Z,30.73
2024-04-14T14:47:41.617Z,30.16
2024-04-14T14:50:08.375Z,30.58
2024-04-14T14:52:35.132Z,30.91
2024-04-14T14:55:02.009Z,30.98
2024-04-14T14:57:28.841Z,31.76
2024-04-14T14:59:55.720Z,30.19
2024-04-14T15:02:22.487Z,30.19
2024-04-14T15:04:49.383Z,30.71
2024-04-14T15:07:16.174Z,31.09
2024-04-14T15:09:43.162Z,30.96
2024-04-14T15:12:12.508Z,31.12
2024-04-14T15:14:39.499Z,30.63
2024-04-14T15:17:06.627Z,29.89
2024-04-14T15:19:35.014Z,29.90
2024-04-14T15:22:02.219Z,30.38
2024-04-14T15:24:29.102Z,30.38
2024-04-14T15:26:55.879Z,29.78
2024-04-14T15:29:22.624Z,29.92
2024-04-14T15:31:49.544Z,30.48
2024-04-14T15:34:16.474Z,31.40
2024-04-14T15:36:43.302Z,31.40
2024-04-14T15:39:10.241Z,32.06
2024-04-14T15:41:36.999Z,31.12
2024-04-14T15:44:10.842Z,30.68
2024-04-14T15:46:44.436Z,30.64
2024-04-14T15:49:11.305Z,31.23
2024-04-14T15:51:38.117Z,32.46
2024-04-14T15:54:04.894Z,31.22
2024-04-14T15:56:31.639Z,30.47
2024-04-14T15:58:58.375Z,30.81
2024-04-14T16:01:25.553Z,31.61
2024-04-14T16:03:52.724Z,31.21
2024-04-14T16:06:22.146Z,30.88
2024-04-14T16:08:54.105Z,31.31
2024-04-14T16:11:20.904Z,31.56
2024-04-14T16:13:47.810Z,31.86
2024-04-14T16:16:15.608Z,31.03
2024-04-14T16:18:44.151Z,31.28
2024-04-14T16:21:11.073Z,31.71
2024-04-14T16:23:46.514Z,32.83
2024-04-14T16:26:14.005Z,31.98
2024-04-14T16:28:41.925Z,31.16
2024-04-14T16:31:10.434Z,31.36
2024-04-14T16:33:37.441Z,31.12
2024-04-14T16:36:04.717Z,31.88
2024-04-14T16:38:31.614Z,32.33
2024-04-14T16:40:58.347Z,31.92
2024-04-14T16:43:25.118Z,32.30
2024-04-14T16:45:51.944Z,31.97
2024-04-14T16:48:19.185Z,32.00
2024-04-14T16:50:46.112Z,32.49
2024-04-14T16:53:12.915Z,32.84
2024-04-14T16:55:39.668Z,33.28
2024-04-14T16:58:06.564Z,32.83
2024-04-14T17:00:33.980Z,32.27
2024-04-14T17:03:01.651Z,32.94
2024-04-14T17:05:28.531Z,32.34
2024-04-14T17:07:55.265Z,32.10
2024-04-14T17:10:22.151Z,32.14
2024-04-14T17:12:49.059Z,31.77
2024-04-14T17:15:16.400Z,31.77
2024-04-14T17:17:44.455Z,32.38
2024-04-14T17:20:13.702Z,32.34
2024-04-14T17:22:40.440Z,32.47
2024-04-14T17:25:07.560Z,33.18
2024-04-14T17:27:34.449Z,32.61
2024-04-14T17:30:03.296Z,32.64
2024-04-14T17:32:30.303Z,33.04
2024-04-14T17:34:57.281Z,33.02
2024-04-14T17:40:15.880Z,32.31
2024-04-14T17:42:43.041Z,32.75
2024-04-14T17:45:10.237Z,32.36
2024-04-14T17:47:37.447Z,32.67
2024-04-14T17:50:04.835Z,33.07
2024-04-14T17:52:31.988Z,32.92
2024-04-14T17:54:59.117Z,33.12
2024-04-14T17:57:26.405Z,32.36
2024-04-14T17:59:53.674Z,32.44
2024-04-14T18:02:21.613Z,32.91
2024-04-14T18:04:48.579Z,33.36
2024-04-14T18:07:15.712Z,33.41
2024-04-14T18:09:43.641Z,33.49
2024-04-14T18:12:10.561Z,33.57
2024-04-14T18:14:37.453Z,33.57
2024-04-14T18:17:04.560Z,33.47
2024-04-14T18:19:31.859Z,33.74
2024-04-14T18:21:58.781Z,34.03
2024-04-14T18:24:39.855Z,33.75
2024-04-14T18:27:14.688Z,34.11
2024-04-14T18:29:42.284Z,33.56
2024-04-14T18:32:09.378Z,33.67
2024-04-14T18:34:36.220Z,33.98
2024-04-14T18:37:04.029Z,34.24
2024-04-14T18:39:31.468Z,34.46
2024-04-14T19:02:45.870Z,35.12
2024-04-14T19:05:17.308Z,35.48
2024-04-14T19:07:49.701Z,36.08
2024-04-14T19:13:00.036Z,36.12
2024-04-14T19:15:31.297Z,35.76
2024-04-14T19:18:03.078Z,35.93
2024-04-14T19:23:16.834Z,35.57
2024-04-14T19:25:43.711Z,35.53
2024-04-14T19:28:12.833Z,35.32
2024-04-14T19:30:41.197Z,35.65
2024-04-14T19:33:08.221Z,35.33
2024-04-14T19:35:43.363Z,35.25
2024-04-14T19:38:14.127Z,35.38
2024-04-14T19:40:41.104Z,35.55
2024-04-14T19:43:08.114Z,35.65
2024-04-14T19:45:35.294Z,35.73
2024-04-14T19:48:02.499Z,35.57
2024-04-14T19:50:29.544Z,35.79
2024-04-14T19:52:57.960Z,35.75
2024-04-14T19:55:28.066Z,35.77
2024-04-14T19:57:55.028Z,35.95
2024-04-14T20:00:22.211Z,36.09
2024-04-14T20:02:49.205Z,36.31
2024-04-14T20:05:16.210Z,36.61
2024-04-14T20:07:43.070Z,36.47
2024-04-14T20:10:11.505Z,36.81
2024-04-14T20:12:38.487Z,36.94
2024-04-14T20:15:05.751Z,36.93
2024-04-14T20:17:32.724Z,36.94
2024-04-14T20:19:59.852Z,37.12
2024-04-14T20:22:26.826Z,37.30
2024-04-14T20:24:53.734Z,37.82
2024-04-14T20:27:20.716Z,38.39
2024-04-14T20:29:47.708Z,38.74
2024-04-14T20:32:14.575Z,39.03
2024-04-14T20:34:42.515Z,39.67
2024-04-14T20:37:09.399Z,39.10
2024-04-14T20:39:36.247Z,38.49
2024-04-14T20:42:03.071Z,37.49
2024-04-14T20:44:29.933Z,37.80
2024-04-14T20:46:56.684Z,37.61
2024-04-14T20:49:23.465Z,38.64
2024-04-14T20:51:50.289Z,38.39
2024-04-14T20:54:17.097Z,38.02
2024-04-14T20:56:43.868Z,38.10
2024-04-14T20:59:10.690Z,38.59
2024-04-14T21:01:37.523Z,38.32
2024-04-14T21:04:04.569Z,38.33
2024-04-14T21:06:31.368Z,38.55
2024-04-14T21:08:58.382Z,37.82
2024-04-14T21:11:25.242Z,37.98
2024-04-14T21:13:52.004Z,37.40
2024-04-14T21:16:18.906Z,37.46
2024-04-14T21:18:45.873Z,37.93
2024-04-14T21:21:12.880Z,37.56
2024-04-14T21:23:42.938Z,38.39
2024-04-14T21:26:09.921Z,38.39
2024-04-14T21:28:37.858Z,38.63
2024-04-14T21:31:05.525Z,39.18
2024-04-14T21:33:32.859Z,38.86
2024-04-14T21:35:59.718Z,39.42
2024-04-14T21:38:26.532Z,39.44
2024-04-14T21:40:56.614Z,39.87
2024-04-14T21:43:23.454Z,39.03
2024-04-14T21:45:57.611Z,39.20
2024-04-14T21:48:27.055Z,39.37
2024-04-14T21:51:05.051Z,38.71
2024-04-14T21:53:33.399Z,38.30
2024-04-14T21:56:01.520Z,38.78
2024-04-14T21:58:33.232Z,39.49
2024-04-14T22:01:02.160Z,39.60
2024-04-14T22:03:29.061Z,39.56
2024-04-14T22:05:57.933Z,39.48
2024-04-14T22:08:30.676Z,39.36
2024-04-14T22:10:59.966Z,40.12
2024-04-14T22:13:29.194Z,40.63
2024-04-14T22:15:56.200Z,40.68
2024-04-14T22:18:23.601Z,40.70
2024-04-14T22:20:50.449Z,41.01
2024-04-14T22:23:17.242Z,41.40
2024-04-14T22:25:43.992Z,41.09
2024-04-14T22:28:11.093Z,41.38
2024-04-14T22:30:38.782Z,41.71
2024-04-14T22:33:08.303Z,41.98
2024-04-14T22:35:35.068Z,41.68
2024-04-14T22:38:02.709Z,42.24
2024-04-14T22:40:30.124Z,41.74
2024-04-14T22:42:57.554Z,42.22
2024-04-14T22:45:24.390Z,42.46
2024-04-14T22:47:51.561Z,42.64
2024-04-14T22:50:18.804Z,42.57
2024-04-14T22:52:45.622Z,42.06
2024-04-14T22:55:12.403Z,42.48
2024-04-14T22:57:39.297Z,42.58
2024-04-14T23:00:11.297Z,42.83
2024-04-14T23:02:38.443Z,42.98
2024-04-14T23:05:05.493Z,42.93
2024-04-14T23:07:32.292Z,43.03
2024-04-14T23:10:00.745Z,43.31
2024-04-14T23:12:27.843Z,43.47
2024-04-14T23:14:54.948Z,43.94
2024-04-14T23:17:21.849Z,44.04
2024-04-14T23:19:49.695Z,43.79
2024-04-14T23:22:16.740Z,43.80
2024-04-14T23:24:43.740Z,43.75
2024-04-14T23:27:10.611Z,43.90
2024-04-14T23:29:37.927Z,43.82
2024-04-14T23:32:06.390Z,43.77
2024-04-14T23:34:33.395Z,43.80
2024-04-14T23:37:01.422Z,43.76
2024-04-14T23:39:28.171Z,44.08
2024-04-14T23:41:54.996Z,44.22
2024-04-14T23:44:21.725Z,44.08
2024-04-14T23:46:48.505Z,44.09
2024-04-14T23:49:15.596Z,44.36
2024-04-14T23:51:42.382Z,44.71
2024-04-14T23:54:09.315Z,44.54
2024-04-14T23:56:36.053Z,44.62
2024-04-14T23:59:02.842Z,44.70
